createdAt,value
2022-10-16T00:03:40.523Z,2.10
2022-10-16T00:07:23.550Z,1.80
2022-10-16T00:11:10.177Z,1.90
2022-10-16T00:14:54.438Z,2.00
2022-10-16T00:19:02.905Z,2.07
2022-10-16T00:22:48.690Z,1.60
2022-10-16T00:26:32.650Z,1.90
2022-10-16T00:30:18.948Z,1.90
2022-10-16T00:34:17.286Z,1.90
2022-10-16T00:37:59.937Z,1.57
2022-10-16T00:41:45.420Z,2.00
2022-10-16T00:45:29.500Z,1.80
2022-10-16T00:49:25.983Z,1.90
2022-10-16T00:53:08.705Z,1.50
2022-10-16T00:56:51.542Z,1.90
2022-10-16T01:00:35.623Z,1.90
2022-10-16T01:04:21.732Z,1.50
2022-10-16T01:08:10.031Z,1.33
2022-10-16T01:12:00.560Z,1.70
2022-10-16T01:15:49.991Z,1.60
2022-10-16T01:20:07.259Z,1.57
2022-10-16T01:23:57.050Z,1.30
2022-10-16T01:27:42.349Z,1.50
2022-10-16T01:31:28.286Z,1.47
2022-10-16T01:39:16.901Z,1.50
2022-10-16T01:43:02.954Z,1.23
2022-10-16T01:46:48.430Z,1.30
2022-10-16T01:50:46.421Z,1.43
2022-10-16T01:54:30.216Z,1.30
2022-10-16T01:58:15.938Z,1.50
2022-10-16T02:02:02.103Z,1.40
2022-10-16T02:06:01.685Z,1.20
2022-10-16T02:09:44.447Z,1.40
2022-10-16T02:13:32.414Z,1.20
2022-10-16T02:17:17.534Z,1.57
2022-10-16T02:21:20.358Z,1.47
2022-10-16T02:25:08.840Z,1.70
2022-10-16T02:28:56.336Z,1.50
2022-10-16T02:32:42.564Z,1.40
2022-10-16T02:36:34.295Z,1.40
2022-10-16T02:40:19.316Z,1.27
2022-10-16T02:44:05.849Z,1.50
2022-10-16T02:47:48.982Z,1.50
2022-10-16T02:51:46.501Z,1.40
2022-10-16T02:55:29.797Z,1.20
2022-10-16T02:59:13.842Z,1.17
2022-10-16T03:02:56.626Z,1.47
2022-10-16T03:06:52.409Z,1.40
2022-10-16T03:10:35.095Z,1.10
2022-10-16T03:14:19.150Z,1.37
2022-10-16T03:18:01.974Z,1.37
2022-10-16T03:21:52.727Z,1.40
2022-10-16T03:25:35.392Z,1.30
2022-10-16T03:29:19.437Z,1.20
2022-10-16T03:33:02.094Z,1.20
2022-10-16T03:40:50.327Z,1.60
2022-10-16T03:44:34.329Z,1.30
2022-10-16T03:48:16.942Z,1.30
2022-10-16T03:52:04.807Z,1.40
2022-10-16T03:55:47.484Z,1.43
2022-10-16T03:59:30.153Z,1.40
2022-10-16T04:03:14.268Z,1.60
2022-10-16T04:06:56.904Z,1.70
2022-10-16T04:10:39.614Z,1.50
2022-10-16T04:14:25.389Z,1.80
2022-10-16T04:18:08.148Z,1.80
2022-10-16T04:21:52.271Z,1.57
2022-10-16T04:25:35.043Z,1.70
2022-10-16T04:29:17.715Z,1.90
2022-10-16T04:36:43.898Z,1.63
2022-10-16T04:40:28.049Z,1.70
2022-10-16T04:44:10.707Z,1.87
2022-10-16T04:47:53.409Z,1.80
2022-10-16T04:51:36.398Z,1.60
2022-10-16T04:55:19.604Z,1.90
2022-10-16T04:59:03.619Z,1.60
2022-10-16T05:02:46.478Z,1.83
2022-10-16T05:06:29.437Z,1.70
2022-10-16T05:10:12.122Z,1.50
2022-10-16T05:13:55.900Z,1.70
2022-10-16T05:17:42.603Z,1.37
2022-10-16T05:21:27.393Z,1.70
2022-10-16T05:25:10.506Z,1.80
2022-10-16T05:28:53.259Z,1.63
2022-10-16T05:32:35.961Z,1.90
2022-10-16T05:36:20.097Z,1.80
2022-10-16T05:40:03.757Z,1.60
2022-10-16T05:43:46.369Z,1.83
2022-10-16T05:47:29.326Z,1.60
2022-10-16T05:51:16.695Z,1.90
2022-10-16T05:55:27.674Z,1.97
2022-10-16T05:59:11.861Z,1.83
2022-10-16T06:02:54.734Z,1.70
2022-10-16T06:06:37.697Z,2.00
2022-10-16T06:10:21.743Z,1.80
2022-10-16T06:14:07.906Z,2.07
2022-10-16T06:17:50.708Z,1.90
2022-10-16T06:21:33.669Z,1.90
2022-10-16T06:25:16.392Z,1.90
2022-10-16T06:29:01.774Z,2.30
2022-10-16T06:32:44.547Z,2.07
2022-10-16T06:36:27.869Z,2.10
2022-10-16T06:40:15.271Z,2.00
2022-10-16T06:43:58.065Z,1.80
2022-10-16T06:47:42.088Z,2.07
2022-10-16T06:51:26.035Z,2.60
2022-10-16T06:55:09.617Z,1.93
2022-10-16T06:58:52.790Z,1.93
2022-10-16T07:02:35.459Z,2.23
2022-10-16T07:06:21.793Z,2.37
2022-10-16T07:10:05.003Z,1.70
2022-10-16T07:13:52.625Z,2.00
2022-10-16T07:17:37.815Z,2.07
2022-10-16T07:21:22.493Z,2.13
2022-10-16T07:25:05.929Z,2.10
2022-10-16T07:28:48.789Z,2.00
2022-10-16T07:32:31.454Z,2.03
2022-10-16T07:36:16.207Z,1.67
2022-10-16T07:40:00.576Z,1.90
2022-10-16T07:43:47.760Z,1.80
2022-10-16T07:47:34.330Z,1.80
2022-10-16T07:51:18.608Z,1.90
2022-10-16T07:55:02.667Z,2.17
2022-10-16T07:58:45.915Z,1.80
2022-10-16T08:02:28.542Z,1.73
2022-10-16T08:06:11.384Z,2.00
2022-10-16T08:09:54.095Z,1.90
2022-10-16T08:13:38.184Z,1.70
2022-10-16T08:17:20.893Z,2.10
2022-10-16T08:21:03.907Z,2.10
2022-10-16T08:24:46.588Z,1.80
2022-10-16T08:28:29.356Z,1.97
2022-10-16T08:32:13.409Z,1.67
2022-10-16T08:35:56.293Z,2.00
2022-10-16T08:39:39.040Z,1.83
2022-10-16T08:43:44.557Z,1.63
2022-10-16T08:47:37.868Z,1.80
2022-10-16T08:51:23.258Z,1.77
2022-10-16T08:55:06.728Z,1.87
2022-10-16T08:58:51.922Z,1.90
2022-10-16T09:02:40.910Z,1.83
2022-10-16T09:06:33.427Z,1.73
2022-10-16T09:10:26.394Z,1.63
2022-10-16T09:14:21.103Z,1.80
2022-10-16T09:18:10.194Z,1.63
2022-10-16T09:21:54.147Z,1.93
2022-10-16T09:25:37.203Z,1.83
2022-10-16T09:29:21.910Z,1.77
2022-10-16T09:33:06.561Z,1.90
2022-10-16T09:36:49.308Z,1.90
2022-10-16T09:40:35.658Z,1.67
2022-10-16T09:44:21.805Z,1.77
2022-10-16T09:48:13.156Z,1.80
2022-10-16T09:52:05.518Z,1.90
2022-10-16T09:55:51.942Z,1.40
2022-10-16T09:59:34.621Z,1.60
2022-10-16T10:03:39.863Z,1.80
2022-10-16T10:07:27.540Z,2.00
2022-10-16T10:11:13.980Z,1.50
2022-10-16T10:15:00.407Z,1.70
2022-10-16T10:18:44.394Z,1.70
2022-10-16T10:22:30.449Z,1.42
2022-10-16T10:26:19.010Z,1.20
2022-10-16T10:30:05.332Z,1.37
2022-10-16T10:33:55.336Z,1.60
2022-10-16T10:37:51.014Z,1.60
2022-10-16T10:42:01.435Z,1.50
2022-10-16T10:45:45.972Z,2.33
2022-10-16T10:49:44.202Z,2.45
2022-10-16T10:53:38.948Z,3.17
2022-10-16T10:57:24.201Z,2.22
2022-10-16T11:01:11.620Z,1.30
2022-10-16T11:05:20.764Z,1.30
2022-10-16T11:09:09.191Z,1.35
2022-10-16T11:12:55.064Z,3.60
2022-10-16T11:16:40.559Z,2.97
2022-10-16T11:20:27.072Z,2.07
2022-10-16T11:24:17.618Z,1.20
2022-10-16T11:28:04.336Z,0.80
2022-10-16T11:31:49.881Z,0.60
2022-10-16T11:35:42.019Z,1.25
2022-10-16T11:39:26.924Z,0.90
2022-10-16T11:43:15.789Z,2.00
2022-10-16T11:51:16.780Z,1.60
2022-10-16T11:55:01.897Z,1.13
2022-10-16T11:58:53.170Z,1.02
2022-10-16T12:02:43.041Z,1.10
2022-10-16T12:06:33.902Z,1.70
2022-10-16T12:10:27.531Z,1.60
2022-10-16T12:14:22.777Z,1.20
2022-10-16T12:18:05.461Z,1.10
2022-10-16T12:21:50.289Z,1.40
2022-10-16T12:25:35.184Z,0.90
2022-10-16T12:29:31.964Z,0.77
2022-10-16T12:33:25.191Z,1.60
2022-10-16T12:37:16.641Z,0.90
2022-10-16T12:41:02.212Z,0.80
2022-10-16T12:44:45.010Z,1.10
2022-10-16T12:48:36.825Z,0.70
2022-10-16T12:52:39.074Z,0.90
2022-10-16T12:56:26.623Z,1.20
2022-10-16T13:00:18.485Z,0.95
2022-10-16T13:04:27.795Z,0.80
2022-10-16T13:08:32.785Z,0.80
2022-10-16T13:12:36.558Z,1.10
2022-10-16T13:16:26.002Z,0.80
2022-10-16T13:20:18.469Z,1.10
2022-10-16T13:24:10.946Z,2.40
2022-10-16T13:27:56.906Z,1.00
2022-10-16T13:31:40.504Z,1.17
2022-10-16T13:35:28.064Z,1.30
2022-10-16T13:39:18.925Z,2.20
2022-10-16T13:43:02.192Z,1.60
2022-10-16T13:46:45.473Z,1.00
2022-10-16T13:50:28.223Z,0.65
2022-10-16T13:54:30.181Z,0.70
2022-10-16T13:58:15.224Z,0.75
2022-10-16T14:01:59.085Z,0.98
2022-10-16T14:05:45.185Z,0.70
2022-10-16T14:09:49.403Z,0.85
2022-10-16T14:13:34.425Z,0.95
2022-10-16T14:17:17.228Z,1.08
2022-10-16T14:21:05.736Z,1.00
2022-10-16T14:24:52.524Z,1.02
2022-10-16T14:28:35.562Z,0.90
2022-10-16T14:32:25.363Z,1.00
2022-10-16T14:36:14.861Z,1.08
2022-10-16T14:39:59.128Z,1.40
2022-10-16T14:43:44.974Z,1.00
2022-10-16T14:47:29.492Z,1.30
2022-10-16T14:51:15.867Z,1.20
2022-10-16T14:54:59.906Z,1.40
2022-10-16T14:58:42.786Z,1.67
2022-10-16T15:02:30.082Z,1.60
2022-10-16T15:06:13.541Z,1.50
2022-10-16T15:09:57.967Z,1.30
2022-10-16T15:13:42.031Z,1.05
2022-10-16T15:17:24.896Z,1.10
2022-10-16T15:21:08.219Z,1.08
2022-10-16T15:24:50.909Z,1.40
2022-10-16T15:28:33.860Z,1.27
2022-10-16T15:32:17.934Z,1.52
2022-10-16T15:36:01.150Z,1.40
2022-10-16T15:39:43.946Z,1.33
2022-10-16T15:43:26.662Z,1.63
2022-10-16T15:47:09.922Z,1.73
2022-10-16T15:50:53.964Z,2.15
2022-10-16T15:54:36.617Z,2.17
2022-10-16T15:58:19.396Z,2.25
2022-10-16T16:02:02.188Z,2.70
2022-10-16T16:05:46.753Z,2.50
2022-10-16T16:09:32.235Z,2.17
2022-10-16T16:13:14.935Z,2.35
2022-10-16T16:16:58.175Z,3.10
2022-10-16T16:20:40.904Z,2.40
2022-10-16T16:24:23.623Z,2.10
2022-10-16T16:28:08.149Z,2.08
2022-10-16T16:31:50.793Z,2.20
2022-10-16T16:35:33.407Z,2.33
2022-10-16T16:39:16.051Z,1.88
2022-10-16T16:42:58.735Z,2.17
2022-10-16T16:46:43.937Z,2.25
2022-10-16T16:50:26.615Z,2.33
2022-10-16T16:54:09.945Z,2.05
2022-10-16T16:57:52.579Z,1.58
2022-10-16T17:01:35.231Z,2.22
2022-10-16T17:05:19.805Z,1.90
2022-10-16T17:09:03.590Z,1.80
2022-10-16T17:12:46.950Z,1.88
2022-10-16T17:16:32.646Z,2.20
2022-10-16T17:20:15.483Z,2.80
2022-10-16T17:23:59.797Z,2.92
2022-10-16T17:27:42.497Z,2.85
2022-10-16T17:31:27.326Z,3.38
2022-10-16T17:35:09.991Z,4.22
2022-10-16T17:38:53.003Z,4.05
2022-10-16T17:42:37.043Z,4.15
2022-10-16T17:46:21.485Z,4.00
2022-10-16T17:50:04.350Z,4.60
2022-10-16T17:53:49.547Z,5.82
2022-10-16T17:57:32.593Z,4.93
2022-10-16T18:01:18.375Z,3.95
2022-10-16T18:05:01.097Z,3.92
2022-10-16T18:08:43.759Z,5.63
2022-10-16T18:12:26.541Z,6.97
2022-10-16T18:16:12.181Z,6.78
2022-10-16T18:19:56.210Z,4.80
2022-10-16T18:23:39.912Z,11.80
2022-10-16T18:27:22.596Z,12.52
2022-10-16T18:31:06.863Z,8.57
2022-10-16T18:34:49.518Z,6.03
2022-10-16T18:38:34.145Z,7.22
2022-10-16T18:42:17.159Z,7.03
2022-10-16T18:46:01.041Z,5.85
2022-10-16T18:49:44.174Z,4.97
2022-10-16T18:53:26.859Z,4.45
2022-10-16T18:57:10.877Z,4.60
2022-10-16T19:00:53.560Z,4.03
2022-10-16T19:04:36.912Z,4.20
2022-10-16T19:08:19.768Z,4.63
2022-10-16T19:12:03.111Z,7.75
2022-10-16T19:15:57.960Z,4.32
2022-10-16T19:19:41.080Z,3.80
2022-10-16T19:23:23.830Z,4.57
2022-10-16T19:27:06.662Z,4.47
2022-10-16T19:30:50.824Z,5.20
2022-10-16T19:34:34.354Z,4.68
2022-10-16T19:38:17.074Z,4.80
2022-10-16T19:41:59.728Z,4.43
2022-10-16T19:45:42.536Z,3.90
2022-10-16T19:49:26.961Z,4.27
2022-10-16T19:53:10.013Z,3.53
2022-10-16T19:56:52.758Z,3.10
2022-10-16T20:00:35.687Z,3.90
2022-10-16T20:04:18.639Z,4.33
2022-10-16T20:08:03.881Z,5.40
2022-10-16T20:11:46.621Z,6.33
2022-10-16T20:15:29.473Z,6.17
2022-10-16T20:19:12.313Z,4.90
2022-10-16T20:22:55.036Z,4.00
2022-10-16T20:26:39.581Z,2.80
2022-10-16T20:30:22.223Z,3.27
2022-10-16T20:34:06.764Z,2.57
2022-10-16T20:37:49.462Z,2.97
2022-10-16T20:41:32.120Z,3.10
2022-10-16T20:45:16.643Z,3.50
2022-10-16T20:49:10.481Z,3.67
2022-10-16T20:52:57.412Z,4.67
2022-10-16T20:56:42.749Z,4.20
2022-10-16T21:00:27.118Z,3.83
2022-10-16T21:04:10.240Z,3.80
2022-10-16T21:07:53.252Z,3.57
2022-10-16T21:11:39.077Z,3.13
2022-10-16T21:15:27.418Z,3.87
2022-10-16T21:19:10.174Z,4.10
2022-10-16T21:22:59.308Z,3.30
2022-10-16T21:26:42.031Z,3.40
2022-10-16T21:30:26.071Z,3.57
2022-10-16T21:34:08.943Z,3.67
2022-10-16T21:37:54.693Z,3.43
2022-10-16T21:41:41.524Z,4.33
2022-10-16T21:45:28.838Z,3.70
2022-10-16T21:49:13.956Z,3.63
2022-10-16T21:52:56.804Z,3.40
2022-10-16T21:56:40.106Z,3.23
2022-10-16T22:00:25.144Z,3.90
2022-10-16T22:04:10.898Z,3.43
2022-10-16T22:07:53.937Z,3.40
2022-10-16T22:11:42.726Z,3.10
2022-10-16T22:15:27.460Z,2.80
2022-10-16T22:19:13.166Z,2.80
2022-10-16T22:22:55.896Z,2.73
2022-10-16T22:26:39.649Z,2.53
2022-10-16T22:30:22.311Z,2.60
2022-10-16T22:34:05.500Z,2.50
2022-10-16T22:37:49.544Z,2.40
2022-10-16T22:41:37.325Z,2.57
2022-10-16T22:45:20.260Z,2.50
2022-10-16T22:49:02.958Z,2.57
2022-10-16T22:52:45.627Z,2.90
2022-10-16T22:56:29.670Z,3.70
2022-10-16T23:00:17.083Z,2.63
2022-10-16T23:04:01.254Z,2.67
2022-10-16T23:07:44.726Z,2.67
2022-10-16T23:11:30.431Z,2.43
2022-10-16T23:15:17.811Z,2.90
2022-10-16T23:19:00.625Z,2.33
2022-10-16T23:22:43.322Z,2.60
2022-10-16T23:26:27.543Z,2.60
2022-10-16T23:30:13.760Z,2.30
2022-10-16T23:33:57.103Z,2.83
2022-10-16T23:37:39.931Z,2.50
2022-10-16T23:41:22.812Z,2.63
2022-10-16T23:45:06.725Z,2.90
2022-10-16T23:48:50.776Z,2.93
2022-10-16T23:52:33.452Z,2.70
2022-10-16T23:56:16.126Z,2.60
2022-10-16T23:59:59.025Z,2.40
